Time;durP1;ratioP1;P1;durP2;ratioP2;P2;SDS_P1;SDS_P2;PMS_P1;PMS_P2;Temp;Humidity;BMP_temperature;BMP_pressure;BME280_temperature;BME280_humidity;BME280_pressure;Samples;Min_cycle;Max_cycle;Signal;HPM_P1;HPM_P2
2022/03/12 00:01:35;;;;;;;14.27;4.47;;;;;;;-2.24;58.87;98061.63;5044417;28;20045;-62
2022/03/12 00:04:04;;;;;;;12.50;4.72;;;;;;;-2.83;58.24;97966.16;5044180;28;20045;-60
2022/03/12 00:06:30;;;;;;;8.95;3.47;;;;;;;-2.87;59.20;98008.38;5044362;28;20057;-62
2022/03/12 00:08:57;;;;;;;12.88;3.83;;;;;;;-2.78;58.99;98028.50;5043942;28;20057;-59
2022/03/12 00:11:27;;;;;;;6.70;3.28;;;;;;;-2.65;58.87;98060.59;5043912;28;20064;-59
2022/03/12 00:13:57;;;;;;;8.95;2.83;;;;;;;-2.99;59.08;97996.13;5042508;28;20368;-63
2022/03/12 00:16:25;;;;;;;11.80;3.70;;;;;;;-2.78;59.59;98057.53;5043292;28;20052;-63
2022/03/12 00:18:55;;;;;;;11.95;1.60;;;;;;;-3.55;59.62;98059.81;5043834;28;20052;-59
2022/03/12 00:21:27;;;;;;;6.93;2.80;;;;;;;-3.91;58.79;98022.66;5043849;28;20123;-63
2022/03/12 00:23:56;;;;;;;9.63;3.70;;;;;;;-3.73;60.57;98052.88;5042258;28;20052;-62
2022/03/12 00:26:23;;;;;;;12.05;3.03;;;;;;;-4.41;60.08;97939.03;5044236;28;20076;-62
2022/03/12 00:28:54;;;;;;;7.60;2.22;;;;;;;-3.78;59.83;98055.53;5043804;28;20067;-62
2022/03/12 00:31:25;;;;;;;8.00;2.15;;;;;;;-3.69;59.82;98061.31;5044276;28;20061;-59
2022/03/12 00:33:53;;;;;;;9.13;2.90;;;;;;;-3.86;60.02;98047.88;5043412;28;20102;-62
2022/03/12 00:36:20;;;;;;;14.00;3.35;;;;;;;-4.36;60.26;98003.19;5043706;28;20052;-61
2022/03/12 00:38:48;;;;;;;13.45;3.42;;;;;;;-3.87;61.29;98031.91;5043956;28;20067;-62
2022/03/12 00:41:16;;;;;;;11.15;4.28;;;;;;;-3.62;61.55;98037.56;5043037;28;20049;-62
2022/03/12 00:43:43;;;;;;;12.85;4.78;;;;;;;-3.51;61.34;98037.38;5043645;28;20099;-61
2022/03/12 00:46:10;;;;;;;14.10;4.60;;;;;;;-5.72;60.43;97663.19;5042104;28;20544;-62
2022/03/12 00:48:38;;;;;;;15.35;4.25;;;;;;;-3.98;60.65;97993.06;5043371;28;20059;-63
2022/03/12 00:51:07;;;;;;;18.02;3.85;;;;;;;-4.10;60.75;97938.31;5043471;28;20645;-61
2022/03/12 00:53:35;;;;;;;20.52;4.68;;;;;;;-3.87;60.78;98012.97;5043596;28;20094;-62
2022/03/12 00:56:03;;;;;;;13.55;4.28;;;;;;;-3.82;60.49;97994.88;5043912;28;20045;-63
2022/03/12 00:58:30;;;;;;;14.45;3.45;;;;;;;-3.99;60.28;98002.28;5043861;28;20049;-61
2022/03/12 01:00:57;;;;;;;10.18;3.03;;;;;;;-4.55;60.08;97916.19;5043062;28;20067;-62
2022/03/12 01:03:24;;;;;;;12.95;3.67;;;;;;;-3.70;60.30;98025.28;5043463;28;20455;-61
2022/03/12 01:05:50;;;;;;;6.05;2.30;;;;;;;-3.83;57.79;98008.66;5043053;28;20052;-62
2022/03/12 01:08:19;;;;;;;7.55;2.17;;;;;;;-3.87;57.33;98015.66;5043573;28;20135;-63
2022/03/12 01:10:46;;;;;;;6.47;1.83;;;;;;;-3.82;58.76;98021.09;5043575;28;20066;-60
2022/03/12 01:13:14;;;;;;;6.88;2.38;;;;;;;-3.78;56.77;98011.41;5043079;28;20056;-61
2022/03/12 01:15:41;;;;;;;6.57;2.30;;;;;;;-3.94;56.09;97991.50;5042133;28;20055;-62
2022/03/12 01:18:14;;;;;;;7.25;2.00;;;;;;;-3.88;56.82;98005.91;5043328;28;20057;-59
2022/03/12 01:20:42;;;;;;;8.82;2.38;;;;;;;-3.82;56.30;98004.88;5043467;28;20067;-60
2022/03/12 01:23:10;;;;;;;4.78;2.08;;;;;;;-3.98;55.92;98005.81;5043245;28;20086;-62
2022/03/12 01:25:37;;;;;;;7.78;2.00;;;;;;;-3.96;57.21;98003.66;5043200;28;20057;-62
2022/03/12 01:28:03;;;;;;;10.77;2.72;;;;;;;-4.01;57.78;98011.69;5043388;28;20056;-62
2022/03/12 01:30:31;;;;;;;7.38;3.10;;;;;;;-4.16;57.19;97970.97;5041918;28;20071;-61
2022/03/12 01:32:58;;;;;;;6.25;1.70;;;;;;;-4.16;56.60;97992.59;5043623;28;20550;-62
2022/03/12 01:35:25;;;;;;;9.73;2.90;;;;;;;-3.94;57.42;98017.75;5042489;28;20045;-62
2022/03/12 01:37:52;;;;;;;9.38;3.60;;;;;;;-4.05;57.51;97975.41;5043505;28;20082;-60
2022/03/12 01:40:20;;;;;;;12.90;4.32;;;;;;;-4.12;58.05;97966.69;5043226;28;20079;-60
2022/03/12 01:42:47;;;;;;;12.23;3.60;;;;;;;-3.62;58.23;98018.63;5042711;28;20057;-62
2022/03/12 01:45:23;;;;;;;12.52;4.63;;;;;;;-3.61;57.50;98021.06;5042849;28;20049;-62
2022/03/12 01:47:51;;;;;;;11.23;4.15;;;;;;;-3.60;57.10;98025.41;5042955;28;20059;-62
2022/03/12 01:50:21;;;;;;;14.20;5.95;;;;;;;-3.54;57.38;98039.81;5043423;28;20056;-62
2022/03/12 01:52:48;;;;;;;37.38;12.82;;;;;;;-3.57;57.24;98034.88;5044904;28;20060;-62
2022/03/12 01:55:15;;;;;;;18.33;5.45;;;;;;;-3.54;57.89;98034.41;5047244;28;20055;-62
2022/03/12 01:57:42;;;;;;;18.40;6.93;;;;;;;-3.49;58.06;98027.13;5046824;28;20448;-59
2022/03/12 02:00:24;;;;;;;24.90;9.15;;;;;;;-3.40;57.87;98036.41;5045279;28;20049;-60
2022/03/12 02:02:53;;;;;;;34.00;13.55;;;;;;;-3.43;57.17;98030.72;5046395;28;20048;-62
2022/03/12 02:05:25;;;;;;;40.28;20.00;;;;;;;-4.06;57.51;97935.94;5044616;28;20071;-62
2022/03/12 02:07:52;;;;;;;20.92;9.10;;;;;;;-3.66;57.04;98006.66;5046507;28;20045;-61
2022/03/12 02:10:20;;;;;;;18.33;8.32;;;;;;;-3.55;56.63;98032.75;5046677;28;20056;-60
2022/03/12 02:12:47;;;;;;;9.73;4.15;;;;;;;-4.14;57.44;97952.63;5046332;28;20061;-62
2022/03/12 02:15:17;;;;;;;11.65;4.25;;;;;;;-3.60;57.27;98024.56;5046420;28;20053;-60
2022/03/12 02:17:44;;;;;;;7.18;3.13;;;;;;;-3.92;57.92;98021.03;5046639;28;20064;-62
2022/03/12 02:20:11;;;;;;;9.35;4.13;;;;;;;-4.36;59.48;98030.25;5046825;28;20056;-61
2022/03/12 02:22:38;;;;;;;8.07;3.03;;;;;;;-4.55;61.29;98015.38;5045034;28;20064;-62
2022/03/12 02:25:05;;;;;;;6.03;2.25;;;;;;;-4.69;60.37;98026.56;5044933;28;20049;-62
2022/03/12 02:27:32;;;;;;;3.47;1.35;;;;;;;-4.75;60.03;98016.75;5046567;28;20435;-62
2022/03/12 02:29:59;;;;;;;3.67;1.60;;;;;;;-4.81;59.96;98012.34;5046171;28;20132;-61
2022/03/12 02:32:26;;;;;;;5.32;2.45;;;;;;;-5.04;59.83;98022.50;5046371;28;20523;-60
2022/03/12 02:34:53;;;;;;;3.33;1.70;;;;;;;-4.95;59.81;98021.84;5046223;28;20057;-59
2022/03/12 02:37:33;;;;;;;8.30;3.22;;;;;;;-5.22;59.91;97956.13;5044872;28;20045;-62
2022/03/12 02:40:04;;;;;;;3.97;1.38;;;;;;;-4.85;58.74;98021.16;5045853;28;20057;-59
2022/03/12 02:42:32;;;;;;;4.20;2.05;;;;;;;-4.91;58.85;98023.00;5045855;28;20518;-61
2022/03/12 02:45:00;;;;;;;5.65;1.63;;;;;;;-5.00;59.28;98013.69;5044278;28;20049;-60
2022/03/12 02:47:31;;;;;;;4.10;1.33;;;;;;;-5.07;58.79;97996.84;5045916;28;20057;-60
2022/03/12 02:50:07;;;;;;;4.10;2.33;;;;;;;-4.80;57.74;98030.19;5045825;28;20053;-61
2022/03/12 02:52:40;;;;;;;8.75;2.10;;;;;;;-4.88;58.58;98033.31;5026087;28;20515;-62
2022/03/12 02:55:14;;;;;;;;;;;;;;;-4.87;58.82;98028.72;5026694;28;20500;-62
2022/03/12 02:57:45;;;;;;;6.47;1.85;;;;;;;-4.97;58.22;98007.78;5026211;28;19924;-61
2022/03/12 03:00:12;;;;;;;13.02;2.25;;;;;;;-4.66;57.88;98039.56;5025711;28;20061;-61
2022/03/12 03:02:41;;;;;;;8.57;2.67;;;;;;;-4.58;57.11;98042.91;5025829;28;20107;-62
2022/03/12 03:05:18;;;;;;;6.90;2.50;;;;;;;-4.46;56.86;98043.63;5025309;28;20049;-62
2022/03/12 03:07:45;;;;;;;5.07;2.05;;;;;;;-4.40;56.75;98048.00;5025984;28;20049;-59
2022/03/12 03:10:33;;;;;;;9.98;2.38;;;;;;;-4.56;57.80;98040.75;5023653;28;20058;-62
2022/03/12 03:13:15;;;;;;;7.57;2.50;;;;;;;-4.56;57.67;98051.56;5025344;28;20351;-62
2022/03/12 03:15:46;;;;;;;8.07;2.45;;;;;;;-4.58;58.42;98056.44;5025934;28;20439;-63
2022/03/12 03:18:15;;;;;;;10.27;2.92;;;;;;;-4.74;59.20;98056.19;5025770;28;20471;-60
2022/03/12 03:20:43;;;;;;;7.13;2.45;;;;;;;-5.30;59.85;97964.63;5023823;28;20053;-61
2022/03/12 03:23:10;;;;;;;6.97;2.70;;;;;;;-4.90;59.76;98048.94;5025378;28;20049;-61
2022/03/12 03:25:38;;;;;;;6.50;2.20;;;;;;;-4.93;60.10;98054.84;5024688;28;20064;-62
2022/03/12 03:28:05;;;;;;;2.63;1.35;;;;;;;-5.50;60.70;97980.50;5025098;28;20050;-60
2022/03/12 03:30:38;;;;;;;10.52;3.38;;;;;;;-5.21;60.80;98038.75;5025372;28;20046;-61
2022/03/12 03:33:13;;;;;;;7.47;2.53;;;;;;;-4.96;59.73;98062.59;5025505;28;20076;-61
2022/03/12 03:35:40;;;;;;;5.68;2.35;;;;;;;-5.45;59.31;97988.69;5025640;28;20049;-60
2022/03/12 03:38:09;;;;;;;8.38;2.08;;;;;;;-4.89;59.06;98069.50;5023861;28;20065;-59
2022/03/12 03:40:36;;;;;;;4.18;1.73;;;;;;;-4.88;59.25;98065.72;5024503;28;20076;-60
2022/03/12 03:43:09;;;;;;;7.57;2.40;;;;;;;-4.83;58.90;98057.69;5025010;28;20049;-59
2022/03/12 03:45:36;;;;;;;5.75;2.03;;;;;;;-5.31;59.37;97999.97;5024875;28;20064;-60
2022/03/12 03:48:04;;;;;;;5.28;1.73;;;;;;;-5.63;58.90;98048.28;5024562;28;20061;-62
2022/03/12 03:50:30;;;;;;;6.80;2.10;;;;;;;-5.49;59.25;97987.53;5027825;28;20049;-59
2022/03/12 03:53:03;;;;;;;8.20;1.98;;;;;;;-4.93;59.66;98068.34;5044225;28;20052;-60
2022/03/12 03:55:32;;;;;;;5.22;2.08;;;;;;;-5.60;59.67;97947.13;5044637;28;20586;-61
2022/03/12 03:58:00;;;;;;;8.20;2.58;;;;;;;-5.27;59.29;98020.00;5043395;28;20057;-61
2022/03/12 04:00:27;;;;;;;6.82;2.08;;;;;;;-5.01;59.54;98076.84;5044438;28;20080;-59
2022/03/12 04:03:02;;;;;;;2.83;1.58;;;;;;;-5.02;59.63;98080.63;5044168;28;20064;-59
2022/03/12 04:05:32;;;;;;;6.60;2.28;;;;;;;-5.02;59.43;98077.94;5042736;28;20061;-59
2022/03/12 04:08:02;;;;;;;6.28;2.25;;;;;;;-4.99;59.49;98085.53;5044262;28;20060;-59
2022/03/12 04:10:29;;;;;;;8.43;2.22;;;;;;;-5.14;59.70;98082.63;5044200;28;20128;-59
2022/03/12 04:12:57;;;;;;;13.18;2.58;;;;;;;-5.12;60.47;98091.25;5042734;28;20056;-59
2022/03/12 04:15:24;;;;;;;7.28;2.50;;;;;;;-5.09;61.82;98106.19;5043959;28;20434;-61
2022/03/12 04:17:52;;;;;;;4.53;2.65;;;;;;;-5.07;60.91;98088.66;5044116;28;20049;-60
2022/03/12 04:20:19;;;;;;;7.53;2.58;;;;;;;-5.05;60.74;98083.84;5044075;28;20049;-62
2022/03/12 04:22:48;;;;;;;6.00;2.88;;;;;;;-5.04;60.46;98088.16;5044063;28;20059;-61
2022/03/12 04:25:16;;;;;;;4.53;1.65;;;;;;;-4.96;60.12;98087.75;5043852;28;20052;-60
2022/03/12 04:27:44;;;;;;;5.28;1.90;;;;;;;-5.75;61.36;98008.94;5043980;28;20459;-60
2022/03/12 04:30:18;;;;;;;7.65;2.70;;;;;;;-5.05;61.29;98081.13;5043472;28;20051;-62
2022/03/12 04:32:45;;;;;;;1.58;0.98;;;;;;;-5.54;61.17;98011.75;5043962;28;20526;-61
2022/03/12 04:35:12;;;;;;;7.75;2.83;;;;;;;-5.01;60.94;98076.84;5043536;28;20053;-61
2022/03/12 04:37:39;;;;;;;6.68;3.03;;;;;;;-5.11;61.54;98163.13;5043843;28;20448;-58
2022/03/12 04:40:10;;;;;;;7.20;2.20;;;;;;;-5.01;61.63;98076.84;5042237;28;20490;-62
2022/03/12 04:42:38;;;;;;;4.35;1.58;;;;;;;-5.16;61.40;98075.81;5041975;28;20532;-59
2022/03/12 04:45:09;;;;;;;6.40;1.88;;;;;;;-5.17;61.51;98087.69;5043334;28;20049;-62
2022/03/12 04:47:41;;;;;;;10.88;3.70;;;;;;;-5.04;61.21;98077.34;5043410;28;20048;-61
2022/03/12 04:50:10;;;;;;;15.05;3.30;;;;;;;-5.35;61.03;98029.34;5044537;28;20053;-61
2022/03/12 04:52:36;;;;;;;7.28;2.20;;;;;;;-5.43;60.05;98018.94;5022733;28;20049;-59
2022/03/12 04:55:09;;;;;;;3.78;1.40;;;;;;;-5.55;60.50;98002.03;5023937;28;20383;-61
2022/03/12 04:57:36;;;;;;;6.20;2.75;;;;;;;-4.77;60.40;98069.38;5022615;28;20528;-59
2022/03/12 05:00:04;;;;;;;6.38;2.25;;;;;;;-5.10;59.09;98029.72;5023877;28;20056;-62
2022/03/12 05:02:32;;;;;;;9.02;3.17;;;;;;;-4.85;60.21;98076.03;5023553;28;20064;-60
2022/03/12 05:04:59;;;;;;;5.43;2.00;;;;;;;-4.77;58.25;98072.09;5023400;28;20111;-60
2022/03/12 05:07:26;;;;;;;4.03;1.73;;;;;;;-5.14;58.32;98016.97;5023643;28;20508;-63
2022/03/12 05:09:57;;;;;;;8.30;2.47;;;;;;;-4.56;58.03;98070.50;5023256;28;20060;-59
2022/03/12 05:12:24;;;;;;;8.40;2.25;;;;;;;-5.01;58.17;98012.03;5023311;28;20149;-58
2022/03/12 05:14:54;;;;;;;7.43;1.70;;;;;;;-4.79;58.15;98058.81;5023541;28;20053;-59
2022/03/12 05:17:26;;;;;;;6.85;2.72;;;;;;;-5.01;58.24;97995.84;5024084;28;20045;-61
2022/03/12 05:19:53;;;;;;;16.10;3.85;;;;;;;-4.39;58.84;98074.00;5022201;28;20059;-61
2022/03/12 05:22:20;;;;;;;11.93;4.60;;;;;;;-4.28;59.05;98075.78;5023418;28;20053;-61
2022/03/12 05:24:46;;;;;;;15.23;4.90;;;;;;;-4.23;58.80;98083.94;5023825;28;20053;-62
2022/03/12 05:27:17;;;;;;;16.42;4.70;;;;;;;-4.08;58.67;98086.84;5026410;28;20508;-59
2022/03/12 05:29:46;;;;;;;14.10;4.97;;;;;;;-4.00;57.62;98089.09;5027249;28;20489;-59
2022/03/12 05:32:13;;;;;;;16.15;6.18;;;;;;;-3.89;57.63;98080.84;5027279;28;20057;-59
2022/03/12 05:34:40;;;;;;;7.80;2.70;;;;;;;-4.40;56.95;97996.66;5026088;28;20075;-59
2022/03/12 05:37:09;;;;;;;18.60;4.63;;;;;;;-3.81;57.45;98079.59;5027204;28;20049;-62
2022/03/12 05:39:37;;;;;;;7.80;2.72;;;;;;;-4.02;56.61;98085.81;5027068;28;20138;-61
2022/03/12 05:42:05;;;;;;;11.52;3.50;;;;;;;-4.13;57.17;98089.47;5026979;28;20056;-60
2022/03/12 05:44:34;;;;;;;21.88;5.10;;;;;;;-4.56;57.61;98000.22;5027172;28;20057;-62
2022/03/12 05:47:06;;;;;;;15.80;4.72;;;;;;;-3.93;57.72;98095.13;5027389;28;20045;-59
2022/03/12 05:49:33;;;;;;;11.80;2.92;;;;;;;-5.16;56.45;97911.91;5027138;28;20049;-62
2022/03/12 05:51:59;;;;;;;10.63;2.97;;;;;;;-4.54;58.27;98055.69;5040480;28;20061;-61
2022/03/12 05:54:26;;;;;;;10.43;3.33;;;;;;;-4.32;57.63;98052.97;5047210;28;20428;-59
2022/03/12 05:56:52;;;;;;;13.52;3.15;;;;;;;-4.04;58.54;98177.22;5046793;28;20045;-62
2022/03/12 05:59:19;;;;;;;10.75;3.38;;;;;;;-4.04;57.56;98085.25;5045207;28;20065;-59
2022/03/12 06:01:46;;;;;;;12.00;2.67;;;;;;;-4.29;57.47;98055.19;5046676;28;20049;-62
2022/03/12 06:04:22;;;;;;;10.80;3.70;;;;;;;-3.67;57.06;98099.78;5046278;28;20061;-62
2022/03/12 06:06:49;;;;;;;5.50;1.58;;;;;;;-4.12;54.93;98009.94;5046316;28;20053;-62
2022/03/12 06:09:16;;;;;;;12.02;2.92;;;;;;;-3.60;55.17;98106.63;5046281;28;20503;-61
2022/03/12 06:11:42;;;;;;;6.22;2.20;;;;;;;-3.47;54.56;98117.06;5046388;28;20056;-61
2022/03/12 06:14:10;;;;;;;4.93;2.25;;;;;;;-3.67;53.79;98065.41;5045114;28;20048;-63
2022/03/12 06:16:37;;;;;;;7.22;3.33;;;;;;;-3.32;54.22;98119.91;5045121;28;20503;-59
2022/03/12 06:19:04;;;;;;;10.70;3.42;;;;;;;-3.51;53.53;98042.00;5045672;28;20053;-62
2022/03/12 06:21:31;;;;;;;7.47;2.90;;;;;;;-3.27;53.39;98064.97;5044930;28;20057;-58
2022/03/12 06:23:59;;;;;;;6.72;3.17;;;;;;;-3.20;53.35;98133.31;5046347;28;20053;-62
2022/03/12 06:26:25;;;;;;;8.77;3.33;;;;;;;-3.41;53.32;98137.69;5046052;28;20063;-59
2022/03/12 06:28:54;;;;;;;12.02;4.50;;;;;;;-3.42;52.97;98105.47;5044532;28;20044;-59
2022/03/12 06:31:20;;;;;;;12.38;4.00;;;;;;;-3.08;53.12;98146.69;5044824;28;20546;-62
2022/03/12 06:33:49;;;;;;;7.20;3.10;;;;;;;-3.26;51.77;98135.13;5046081;28;20700;-60
2022/03/12 06:36:16;;;;;;;6.03;2.70;;;;;;;-3.17;52.31;98155.28;5045809;28;20056;-60
2022/03/12 06:38:43;;;;;;;15.25;3.67;;;;;;;-3.21;52.30;98153.34;5043463;28;20053;-60
2022/03/12 06:41:10;;;;;;;4.70;1.85;;;;;;;-3.13;53.19;98161.03;5045744;28;20395;-59
2022/03/12 06:43:42;;;;;;;7.22;3.35;;;;;;;-2.80;51.69;98166.22;5045759;28;20045;-62
2022/03/12 06:46:15;;;;;;;13.80;4.03;;;;;;;-2.49;51.17;98162.66;5046062;28;20071;-59
2022/03/12 06:48:43;;;;;;;8.07;2.83;;;;;;;-2.67;51.01;98171.19;5045878;28;20049;-62
2022/03/12 06:51:10;;;;;;;10.40;3.45;;;;;;;-2.58;50.93;98172.38;5044661;28;20055;-59
2022/03/12 06:53:38;;;;;;;3.85;2.25;;;;;;;-2.78;51.37;98164.03;5045575;28;20167;-59
2022/03/12 06:56:06;;;;;;;6.07;2.08;;;;;;;-2.79;50.97;98173.25;5045765;28;20048;-61
2022/03/12 06:58:34;;;;;;;7.18;2.33;;;;;;;-2.68;50.73;98168.72;5045353;28;20051;-62
2022/03/12 07:01:00;;;;;;;6.43;2.67;;;;;;;-2.70;51.37;98160.06;5045466;28;20059;-60
2022/03/12 07:03:27;;;;;;;11.68;3.47;;;;;;;-2.48;51.34;98164.28;5045479;28;20057;-60
2022/03/12 07:05:54;;;;;;;16.55;4.20;;;;;;;-2.34;50.23;98146.50;5044384;28;20053;-61
2022/03/12 07:08:22;;;;;;;5.93;2.53;;;;;;;-2.41;49.80;98164.91;5045562;28;20049;-62
2022/03/12 07:10:49;;;;;;;6.35;2.83;;;;;;;-2.33;48.44;98156.28;5045131;28;20448;-62
2022/03/12 07:13:16;;;;;;;3.97;2.05;;;;;;;-2.41;48.21;98169.50;5045183;28;20055;-59
2022/03/12 07:15:43;;;;;;;8.80;2.95;;;;;;;-2.41;48.48;98174.91;5040994;28;20055;-62
2022/03/12 07:18:10;;;;;;;9.32;3.40;;;;;;;-2.50;48.27;98171.91;5044324;28;20075;-61
2022/03/12 07:20:37;;;;;;;9.88;3.85;;;;;;;-2.44;48.31;98176.28;5043993;28;20053;-63
2022/03/12 07:23:04;;;;;;;11.00;3.72;;;;;;;-2.36;49.70;98174.97;5040328;28;20417;-61
2022/03/12 07:25:32;;;;;;;9.70;3.90;;;;;;;-2.21;49.16;98197.59;5044613;28;20427;-61
2022/03/12 07:28:00;;;;;;;11.98;3.58;;;;;;;-2.01;47.48;98173.28;5042467;28;20608;-61
2022/03/12 07:30:26;;;;;;;12.43;2.35;;;;;;;-2.53;46.51;98133.63;5042359;28;20053;-62
2022/03/12 07:32:53;;;;;;;6.72;2.90;;;;;;;-2.07;47.56;98177.06;5043122;28;20045;-58
2022/03/12 07:35:20;;;;;;;14.57;3.28;;;;;;;-2.17;48.00;98166.16;5043363;28;20053;-58
2022/03/12 07:37:49;;;;;;;10.23;3.28;;;;;;;-2.31;47.92;98175.00;5043863;28;20049;-57
2022/03/12 07:40:16;;;;;;;6.85;1.35;;;;;;;-2.85;48.43;98089.44;5043205;28;20135;-60
2022/03/12 07:42:44;;;;;;;10.38;3.65;;;;;;;-2.71;48.60;98126.69;5041850;28;20048;-57
2022/03/12 07:45:11;;;;;;;16.50;4.25;;;;;;;-2.56;49.03;98123.28;5042794;28;20044;-64
2022/03/12 07:47:38;;;;;;;9.52;3.83;;;;;;;-1.92;48.70;98133.72;5044535;28;20075;-68
2022/03/12 07:50:07;;;;;;;11.98;4.15;;;;;;;-1.13;46.95;98180.47;5041992;28;20053;-58
2022/03/12 07:52:34;;;;;;;12.20;4.43;;;;;;;-0.89;46.69;98178.09;5043121;28;20435;-60
2022/03/12 07:55:02;;;;;;;15.85;4.68;;;;;;;-0.70;46.04;98171.88;5043816;28;20440;-60
2022/03/12 07:57:29;;;;;;;15.32;4.50;;;;;;;-0.33;45.43;98166.13;5042115;28;20061;-62
2022/03/12 07:59:58;;;;;;;11.55;3.47;;;;;;;-0.82;44.45;98103.31;5040384;28;20045;-59
2022/03/12 08:02:25;;;;;;;4.22;1.75;;;;;;;-0.99;44.37;98169.91;5040459;28;20551;-62
2022/03/12 08:04:52;;;;;;;3.70;0.90;;;;;;;-0.80;44.49;98168.31;5042805;28;20673;-68
2022/03/12 08:07:19;;;;;;;15.68;3.83;;;;;;;-1.39;44.54;98047.53;5043276;28;20061;-64
2022/03/12 08:09:46;;;;;;;15.73;4.75;;;;;;;-0.92;44.99;98170.47;5042045;28;20049;-65
2022/03/12 08:12:15;;;;;;;12.10;3.58;;;;;;;-0.92;44.74;98178.63;5043554;28;20538;-58
2022/03/12 08:14:44;;;;;;;8.70;2.35;;;;;;;-0.50;45.03;98187.38;5040444;28;20113;-56
2022/03/12 08:17:11;;;;;;;5.70;2.38;;;;;;;-1.06;42.45;98074.22;5042041;28;20059;-58
2022/03/12 08:19:38;;;;;;;6.13;2.15;;;;;;;-0.28;42.05;98196.09;5040566;28;20416;-69
2022/03/12 08:22:05;;;;;;;6.88;2.50;;;;;;;-0.14;41.91;98199.88;5042579;28;20052;-55
2022/03/12 08:24:32;;;;;;;3.50;1.45;;;;;;;-0.38;42.86;98196.09;5042868;28;20057;-58
2022/03/12 08:26:59;;;;;;;6.32;2.38;;;;;;;-0.69;41.60;98175.38;5042119;28;20531;-61
2022/03/12 08:29:26;;;;;;;8.75;2.53;;;;;;;-0.20;42.76;98187.38;5041093;28;20122;-57
2022/03/12 08:31:53;;;;;;;3.28;1.38;;;;;;;-0.48;43.00;98125.34;5044003;28;20055;-63
2022/03/12 08:34:20;;;;;;;3.55;1.65;;;;;;;-0.11;43.26;98202.06;5043191;28;20060;-59
2022/03/12 08:36:46;;;;;;;7.78;2.72;;;;;;;-0.47;42.45;98102.47;5040949;28;20049;-69
2022/03/12 08:39:14;;;;;;;7.85;3.15;;;;;;;-0.08;42.21;98202.31;5041838;28;20066;-64
2022/03/12 08:41:42;;;;;;;7.13;2.53;;;;;;;0.20;41.15;98202.84;5040254;28;20044;-64
2022/03/12 08:44:10;;;;;;;5.20;2.38;;;;;;;0.04;41.33;98174.81;5041990;28;20053;-59
2022/03/12 08:46:38;;;;;;;5.57;2.45;;;;;;;-0.31;41.38;98163.97;5041950;28;20409;-59
2022/03/12 08:49:05;;;;;;;6.20;2.47;;;;;;;-0.49;42.44;98205.34;5041898;28;20060;-58
2022/03/12 08:51:32;;;;;;;7.55;2.50;;;;;;;-0.39;42.72;98194.44;5041969;28;20066;-67
2022/03/12 08:53:58;;;;;;;8.50;2.63;;;;;;;-1.14;42.42;98146.25;5043672;28;20065;-60
2022/03/12 08:56:25;;;;;;;6.70;2.22;;;;;;;-0.65;42.18;98203.69;5043126;28;20048;-57
2022/03/12 08:58:52;;;;;;;6.80;2.58;;;;;;;-0.26;42.54;98215.69;5042341;28;20057;-63
2022/03/12 09:01:18;;;;;;;7.18;2.85;;;;;;;-0.30;41.54;98215.41;5042311;28;20083;-62
2022/03/12 09:03:50;;;;;;;3.92;1.98;;;;;;;0.35;40.57;98249.94;5041490;28;20499;-61
2022/03/12 09:06:18;;;;;;;3.42;1.77;;;;;;;-0.05;41.32;98206.44;5042008;28;20104;-63
2022/03/12 09:08:46;;;;;;;6.93;2.22;;;;;;;-0.06;41.57;98199.34;5042597;28;20049;-60
2022/03/12 09:11:16;;;;;;;5.22;2.25;;;;;;;0.03;42.19;98154.13;5041888;28;20594;-60
2022/03/12 09:13:43;;;;;;;6.03;2.58;;;;;;;0.08;42.61;98189.50;5042722;28;20063;-56
2022/03/12 09:16:10;;;;;;;5.88;2.15;;;;;;;-1.81;42.00;97825.91;5041653;28;20127;-59
2022/03/12 09:18:36;;;;;;;1.45;1.13;;;;;;;0.67;40.34;98204.06;5040962;28;20524;-62
2022/03/12 09:21:03;;;;;;;7.22;2.67;;;;;;;0.13;40.23;98096.88;5040340;28;20072;-60
2022/03/12 09:23:30;;;;;;;7.00;2.15;;;;;;;-0.01;40.24;98117.63;5041982;28;20064;-61
2022/03/12 09:25:57;;;;;;;5.50;2.28;;;;;;;-0.27;41.50;98122.31;5042397;28;20053;-72
2022/03/12 09:28:24;;;;;;;5.40;2.53;;;;;;;0.60;41.19;98198.09;5041732;28;20110;-70
2022/03/12 09:30:51;;;;;;;6.80;2.50;;;;;;;0.77;42.24;98228.56;5042025;28;20057;-67
2022/03/12 09:33:22;;;;;;;5.78;2.60;;;;;;;0.25;42.04;98167.41;5041864;28;20151;-58
2022/03/12 09:35:53;;;;;;;5.18;2.53;;;;;;;-0.55;42.15;98005.06;5040664;28;20045;-60
2022/03/12 09:38:20;;;;;;;9.60;2.72;;;;;;;0.88;41.40;98216.53;5042616;28;20057;-61
2022/03/12 09:40:47;;;;;;;7.88;2.72;;;;;;;0.64;42.29;98226.44;5040307;28;20158;-70
2022/03/12 09:43:14;;;;;;;4.53;1.55;;;;;;;-0.36;43.10;98204.78;5042946;28;20045;-66
2022/03/12 09:45:41;;;;;;;6.50;2.58;;;;;;;0.09;43.07;98223.84;5042285;28;20076;-62
2022/03/12 09:48:08;;;;;;;4.82;2.03;;;;;;;0.09;43.87;98218.38;5042921;28;20056;-57
2022/03/12 09:50:36;;;;;;;16.42;4.53;;;;;;;-0.47;44.66;98094.31;5040446;28;20053;-68
2022/03/12 09:53:04;;;;;;;7.90;2.95;;;;;;;-0.87;45.19;98089.69;5041697;28;20053;-56
2022/03/12 09:55:32;;;;;;;5.53;1.27;;;;;;;-0.60;45.22;98181.94;5041742;28;20584;-56
2022/03/12 09:57:58;;;;;;;11.38;4.15;;;;;;;0.33;45.24;98214.00;5040261;28;20099;-65
2022/03/12 10:00:25;;;;;;;4.75;1.77;;;;;;;0.38;42.54;98211.22;5040346;28;20059;-57
2022/03/12 10:02:52;;;;;;;4.78;1.92;;;;;;;-0.26;42.40;98074.13;5042408;28;20130;-56
2022/03/12 10:05:19;;;;;;;7.18;2.53;;;;;;;0.68;42.17;98085.72;5039865;28;20515;-57
2022/03/12 10:07:46;;;;;;;9.93;2.50;;;;;;;1.42;41.65;98202.84;5042793;28;20059;-56
2022/03/12 10:10:15;;;;;;;6.95;3.00;;;;;;;0.61;42.24;98089.88;5041904;28;20524;-62
2022/03/12 10:12:46;;;;;;;7.43;3.20;;;;;;;1.24;42.48;98204.31;5042103;28;20049;-61
2022/03/12 10:15:17;;;;;;;5.30;2.55;;;;;;;0.89;42.36;98218.16;5044347;28;20057;-57
2022/03/12 10:17:45;;;;;;;4.43;1.55;;;;;;;-0.61;41.99;98098.69;5045418;28;20053;-53
2022/03/12 10:20:12;;;;;;;7.40;2.88;;;;;;;0.59;43.80;98201.09;5045675;28;20582;-54
2022/03/12 10:22:41;;;;;;;3.60;1.20;;;;;;;0.28;42.00;98196.81;5045945;28;20057;-57
2022/03/12 10:25:08;;;;;;;5.75;2.75;;;;;;;-0.23;43.27;98122.59;5045598;28;20049;-57
2022/03/12 10:27:35;;;;;;;9.80;3.08;;;;;;;0.19;42.95;98202.00;5045404;28;20123;-59
2022/03/12 10:30:03;;;;;;;6.90;2.83;;;;;;;0.19;43.75;98196.56;5044671;28;20138;-61
2022/03/12 10:32:34;;;;;;;6.22;2.50;;;;;;;0.18;41.04;98118.66;5046291;28;20231;-59
2022/03/12 10:35:02;;;;;;;7.53;3.30;;;;;;;0.33;41.54;98181.28;5044760;28;20429;-55
2022/03/12 10:37:31;;;;;;;4.53;2.38;;;;;;;0.68;42.19;98181.16;5045106;28;20049;-60
2022/03/12 10:40:12;;;;;;;4.53;2.05;;;;;;;-1.67;43.15;97786.22;5045204;28;20053;-59
2022/03/12 10:42:56;;;;;;;4.55;2.17;;;;;;;0.40;41.91;98186.44;5048939;28;20041;-64
2022/03/12 10:45:39;;;;;;;6.93;3.13;;;;;;;0.92;41.93;98179.41;5059874;28;20487;-61
2022/03/12 10:48:06;;;;;;;5.00;1.98;;;;;;;1.53;40.34;98164.25;5045154;28;20063;-59
2022/03/12 10:50:38;;;;;;;5.95;2.22;;;;;;;0.90;40.17;98157.03;5045655;28;20072;-57
2022/03/12 10:53:06;;;;;;;7.70;2.33;;;;;;;0.64;40.01;98166.47;5045583;28;20056;-56
2022/03/12 10:55:36;;;;;;;6.07;2.53;;;;;;;0.68;40.93;98148.44;5046263;28;20053;-56
2022/03/12 10:58:12;;;;;;;5.97;3.00;;;;;;;0.89;40.88;98102.78;5045957;28;20060;-56
2022/03/12 11:00:45;;;;;;;5.90;2.20;;;;;;;0.80;41.95;98143.47;5043985;28;20053;-57
2022/03/12 11:03:18;;;;;;;5.40;1.98;;;;;;;0.83;40.86;98151.09;5043921;28;20135;-59
2022/03/12 11:05:46;;;;;;;6.93;3.13;;;;;;;1.19;40.71;98117.03;5043702;28;20088;-59
2022/03/12 11:08:17;;;;;;;8.38;3.10;;;;;;;1.74;40.75;98136.81;5044126;28;20072;-60
2022/03/12 11:10:58;;;;;;;7.88;2.97;;;;;;;1.64;41.28;98053.06;5043823;28;20053;-60
2022/03/12 11:13:44;;;;;;;3.58;1.27;;;;;;;1.07;43.20;98067.50;5045315;28;20056;-60
2022/03/12 11:16:24;;;;;;;8.32;3.28;;;;;;;1.43;43.98;98115.22;5044810;28;20067;-60
2022/03/12 11:18:51;;;;;;;9.75;3.22;;;;;;;1.98;44.22;98121.25;5044752;28;20105;-61
2022/03/12 11:21:47;;;;;;;5.07;2.17;;;;;;;1.96;43.70;98118.81;5044943;28;20052;-59
2022/03/12 11:24:27;;;;;;;5.47;2.38;;;;;;;2.39;40.01;98116.97;5043841;28;20060;-60
2022/03/12 11:26:58;;;;;;;4.53;1.98;;;;;;;2.68;38.51;98123.19;5044801;28;20052;-57
2022/03/12 11:29:27;;;;;;;5.50;2.28;;;;;;;2.89;37.99;98119.06;5043508;28;20057;-59
2022/03/12 11:31:57;;;;;;;6.40;1.75;;;;;;;2.64;37.61;98108.47;5045198;28;20056;-59
2022/03/12 11:34:38;;;;;;;3.40;1.67;;;;;;;2.22;38.38;98116.63;5042894;28;20052;-61
2022/03/12 11:37:15;;;;;;;5.43;1.63;;;;;;;2.32;37.47;98124.72;5045058;28;20064;-60
2022/03/12 11:39:53;;;;;;;5.28;2.17;;;;;;;2.50;37.49;98115.72;5043271;28;20053;-59